sensor_id;sensor_type;location;lat;lon;timestamp;P1;durP1;ratioP1;P2;durP2;ratioP2
71125;SDS011;58785;55.566;38.058;2023-03-03T00:01:17;4.53;;;0.90;;
71125;SDS011;58785;55.566;38.058;2023-03-03T00:03:43;6.47;;;0.73;;
71125;SDS011;58785;55.566;38.058;2023-03-03T00:06:13;4.40;;;0.77;;
71125;SDS011;58785;55.566;38.058;2023-03-03T00:08:39;3.20;;;0.50;;
71125;SDS011;58785;55.566;38.058;2023-03-03T00:11:05;3.70;;;0.52;;
71125;SDS011;58785;55.566;38.058;2023-03-03T00:13:34;3.35;;;0.63;;
71125;SDS011;58785;55.566;38.058;2023-03-03T00:19:10;2.87;;;0.40;;
71125;SDS011;58785;55.566;38.058;2023-03-03T00:21:40;4.50;;;0.77;;
71125;SDS011;58785;55.566;38.058;2023-03-03T00:24:22;3.35;;;0.70;;
71125;SDS011;58785;55.566;38.058;2023-03-03T00:26:50;3.88;;;0.82;;
71125;SDS011;58785;55.566;38.058;2023-03-03T00:29:25;6.25;;;0.80;;
71125;SDS011;58785;55.566;38.058;2023-03-03T00:34:37;2.92;;;0.40;;
71125;SDS011;58785;55.566;38.058;2023-03-03T00:37:03;6.70;;;1.10;;
71125;SDS011;58785;55.566;38.058;2023-03-03T00:39:58;3.00;;;0.60;;
71125;SDS011;58785;55.566;38.058;2023-03-03T00:42:33;3.83;;;0.52;;
71125;SDS011;58785;55.566;38.058;2023-03-03T00:45:00;4.07;;;0.85;;
71125;SDS011;58785;55.566;38.058;2023-03-03T00:47:42;6.60;;;0.88;;
71125;SDS011;58785;55.566;38.058;2023-03-03T00:52:34;4.80;;;0.73;;
71125;SDS011;58785;55.566;38.058;2023-03-03T00:55:05;3.20;;;0.57;;
71125;SDS011;58785;55.566;38.058;2023-03-03T00:57:32;3.50;;;0.70;;
71125;SDS011;58785;55.566;38.058;2023-03-03T00:59:57;3.35;;;0.60;;
71125;SDS011;58785;55.566;38.058;2023-03-03T01:02:23;3.83;;;0.50;;
71125;SDS011;58785;55.566;38.058;2023-03-03T01:04:50;5.40;;;0.57;;
71125;SDS011;58785;55.566;38.058;2023-03-03T01:07:17;4.25;;;0.43;;
71125;SDS011;58785;55.566;38.058;2023-03-03T01:09:43;2.40;;;0.40;;
71125;SDS011;58785;55.566;38.058;2023-03-03T01:12:09;5.40;;;0.50;;
71125;SDS011;58785;55.566;38.058;2023-03-03T01:14:36;3.70;;;0.60;;
71125;SDS011;58785;55.566;38.058;2023-03-03T01:17:02;4.38;;;0.50;;
71125;SDS011;58785;55.566;38.058;2023-03-03T01:19:28;2.93;;;0.60;;
71125;SDS011;58785;55.566;38.058;2023-03-03T01:21:54;4.93;;;0.80;;
71125;SDS011;58785;55.566;38.058;2023-03-03T01:24:19;2.70;;;0.40;;
71125;SDS011;58785;55.566;38.058;2023-03-03T01:26:47;2.40;;;0.40;;
71125;SDS011;58785;55.566;38.058;2023-03-03T01:29:13;4.17;;;0.37;;
71125;SDS011;58785;55.566;38.058;2023-03-03T01:31:39;2.70;;;0.60;;
71125;SDS011;58785;55.566;38.058;2023-03-03T01:34:04;3.43;;;0.57;;
71125;SDS011;58785;55.566;38.058;2023-03-03T01:36:33;3.20;;;0.40;;
71125;SDS011;58785;55.566;38.058;2023-03-03T01:38:59;4.20;;;0.80;;
71125;SDS011;58785;55.566;38.058;2023-03-03T01:41:28;4.05;;;0.40;;
71125;SDS011;58785;55.566;38.058;2023-03-03T01:43:57;4.07;;;0.77;;
71125;SDS011;58785;55.566;38.058;2023-03-03T01:49:19;2.80;;;0.43;;
71125;SDS011;58785;55.566;38.058;2023-03-03T01:55:02;3.50;;;0.63;;
71125;SDS011;58785;55.566;38.058;2023-03-03T01:57:36;5.20;;;0.80;;
71125;SDS011;58785;55.566;38.058;2023-03-03T02:00:07;2.83;;;0.43;;
71125;SDS011;58785;55.566;38.058;2023-03-03T02:02:34;3.47;;;0.73;;
71125;SDS011;58785;55.566;38.058;2023-03-03T02:05:00;4.40;;;0.60;;
71125;SDS011;58785;55.566;38.058;2023-03-03T02:07:26;3.50;;;0.40;;
71125;SDS011;58785;55.566;38.058;2023-03-03T02:10:27;3.67;;;0.80;;
71125;SDS011;58785;55.566;38.058;2023-03-03T02:17:52;4.63;;;0.70;;
71125;SDS011;58785;55.566;38.058;2023-03-03T02:20:31;2.83;;;0.50;;
71125;SDS011;58785;55.566;38.058;2023-03-03T02:28:24;2.60;;;0.50;;
71125;SDS011;58785;55.566;38.058;2023-03-03T02:30:56;3.10;;;0.57;;
71125;SDS011;58785;55.566;38.058;2023-03-03T02:33:23;3.00;;;0.57;;
71125;SDS011;58785;55.566;38.058;2023-03-03T02:35:49;6.73;;;0.60;;
71125;SDS011;58785;55.566;38.058;2023-03-03T02:43:32;2.47;;;0.50;;
71125;SDS011;58785;55.566;38.058;2023-03-03T02:46:09;5.93;;;0.40;;
71125;SDS011;58785;55.566;38.058;2023-03-03T02:48:35;4.27;;;0.87;;
71125;SDS011;58785;55.566;38.058;2023-03-03T02:51:01;3.80;;;0.50;;
71125;SDS011;58785;55.566;38.058;2023-03-03T02:53:26;6.27;;;0.80;;
71125;SDS011;58785;55.566;38.058;2023-03-03T02:55:52;4.05;;;0.68;;
71125;SDS011;58785;55.566;38.058;2023-03-03T02:58:18;4.27;;;0.67;;
71125;SDS011;58785;55.566;38.058;2023-03-03T03:00:43;4.03;;;0.97;;
71125;SDS011;58785;55.566;38.058;2023-03-03T03:03:12;5.13;;;1.05;;
71125;SDS011;58785;55.566;38.058;2023-03-03T03:05:38;6.15;;;0.98;;
71125;SDS011;58785;55.566;38.058;2023-03-03T03:08:03;3.30;;;0.43;;
71125;SDS011;58785;55.566;38.058;2023-03-03T03:10:29;5.68;;;1.00;;
71125;SDS011;58785;55.566;38.058;2023-03-03T03:12:54;4.43;;;0.60;;
71125;SDS011;58785;55.566;38.058;2023-03-03T03:15:20;7.07;;;0.60;;
71125;SDS011;58785;55.566;38.058;2023-03-03T03:17:46;2.87;;;0.47;;
71125;SDS011;58785;55.566;38.058;2023-03-03T03:20:12;4.25;;;0.50;;
71125;SDS011;58785;55.566;38.058;2023-03-03T03:22:37;7.90;;;1.03;;
71125;SDS011;58785;55.566;38.058;2023-03-03T03:25:03;5.30;;;0.98;;
71125;SDS011;58785;55.566;38.058;2023-03-03T03:27:29;3.75;;;0.55;;
71125;SDS011;58785;55.566;38.058;2023-03-03T03:29:55;4.53;;;0.40;;
71125;SDS011;58785;55.566;38.058;2023-03-03T03:32:21;5.77;;;0.37;;
71125;SDS011;58785;55.566;38.058;2023-03-03T03:34:46;4.65;;;0.77;;
71125;SDS011;58785;55.566;38.058;2023-03-03T03:37:12;2.30;;;0.33;;
71125;SDS011;58785;55.566;38.058;2023-03-03T03:39:37;4.90;;;1.10;;
71125;SDS011;58785;55.566;38.058;2023-03-03T03:42:03;2.47;;;0.60;;
71125;SDS011;58785;55.566;38.058;2023-03-03T03:44:29;3.40;;;0.70;;
71125;SDS011;58785;55.566;38.058;2023-03-03T03:46:54;7.30;;;0.83;;
71125;SDS011;58785;55.566;38.058;2023-03-03T03:49:20;5.32;;;0.90;;
71125;SDS011;58785;55.566;38.058;2023-03-03T03:51:46;4.73;;;1.00;;
71125;SDS011;58785;55.566;38.058;2023-03-03T03:54:11;4.13;;;0.60;;
71125;SDS011;58785;55.566;38.058;2023-03-03T03:56:37;7.20;;;0.60;;
71125;SDS011;58785;55.566;38.058;2023-03-03T03:59:04;4.13;;;0.70;;
71125;SDS011;58785;55.566;38.058;2023-03-03T04:01:31;7.68;;;0.95;;
71125;SDS011;58785;55.566;38.058;2023-03-03T04:03:56;4.07;;;0.80;;
71125;SDS011;58785;55.566;38.058;2023-03-03T04:06:22;4.03;;;0.70;;
71125;SDS011;58785;55.566;38.058;2023-03-03T04:08:48;3.08;;;0.70;;
71125;SDS011;58785;55.566;38.058;2023-03-03T04:11:13;2.63;;;0.50;;
71125;SDS011;58785;55.566;38.058;2023-03-03T04:13:39;6.45;;;0.70;;
71125;SDS011;58785;55.566;38.058;2023-03-03T04:16:05;4.33;;;0.67;;
71125;SDS011;58785;55.566;38.058;2023-03-03T04:18:31;3.92;;;0.70;;
71125;SDS011;58785;55.566;38.058;2023-03-03T04:20:56;6.30;;;0.80;;
71125;SDS011;58785;55.566;38.058;2023-03-03T04:23:22;6.60;;;1.00;;
71125;SDS011;58785;55.566;38.058;2023-03-03T04:25:48;3.43;;;0.83;;
71125;SDS011;58785;55.566;38.058;2023-03-03T04:28:14;10.88;;;0.63;;
71125;SDS011;58785;55.566;38.058;2023-03-03T04:30:41;3.35;;;0.70;;
71125;SDS011;58785;55.566;38.058;2023-03-03T04:33:08;9.05;;;1.13;;
71125;SDS011;58785;55.566;38.058;2023-03-03T04:35:33;5.83;;;0.87;;
71125;SDS011;58785;55.566;38.058;2023-03-03T04:37:59;4.65;;;0.73;;
71125;SDS011;58785;55.566;38.058;2023-03-03T04:40:25;3.67;;;0.70;;
71125;SDS011;58785;55.566;38.058;2023-03-03T04:42:50;5.30;;;0.88;;
71125;SDS011;58785;55.566;38.058;2023-03-03T04:45:16;6.97;;;2.07;;
71125;SDS011;58785;55.566;38.058;2023-03-03T04:47:42;4.25;;;0.90;;
71125;SDS011;58785;55.566;38.058;2023-03-03T04:50:08;5.13;;;0.73;;
71125;SDS011;58785;55.566;38.058;2023-03-03T04:52:34;7.07;;;1.05;;
71125;SDS011;58785;55.566;38.058;2023-03-03T04:55:01;3.47;;;0.63;;
71125;SDS011;58785;55.566;38.058;2023-03-03T04:57:28;6.57;;;0.80;;
71125;SDS011;58785;55.566;38.058;2023-03-03T04:59:54;3.73;;;0.70;;
71125;SDS011;58785;55.566;38.058;2023-03-03T05:02:20;7.32;;;0.90;;
71125;SDS011;58785;55.566;38.058;2023-03-03T05:04:45;3.85;;;1.00;;
71125;SDS011;58785;55.566;38.058;2023-03-03T05:07:11;4.43;;;0.67;;
71125;SDS011;58785;55.566;38.058;2023-03-03T05:09:37;6.10;;;1.00;;
71125;SDS011;58785;55.566;38.058;2023-03-03T05:12:02;3.83;;;0.73;;
71125;SDS011;58785;55.566;38.058;2023-03-03T05:14:28;2.73;;;0.60;;
71125;SDS011;58785;55.566;38.058;2023-03-03T05:16:55;2.88;;;0.50;;
71125;SDS011;58785;55.566;38.058;2023-03-03T05:19:21;4.28;;;0.50;;
71125;SDS011;58785;55.566;38.058;2023-03-03T05:21:48;2.75;;;0.57;;
71125;SDS011;58785;55.566;38.058;2023-03-03T05:24:13;2.90;;;0.70;;
71125;SDS011;58785;55.566;38.058;2023-03-03T05:26:39;2.92;;;0.60;;
71125;SDS011;58785;55.566;38.058;2023-03-03T05:29:06;3.00;;;0.55;;
71125;SDS011;58785;55.566;38.058;2023-03-03T05:31:32;8.45;;;0.60;;
71125;SDS011;58785;55.566;38.058;2023-03-03T05:33:58;3.20;;;0.90;;
71125;SDS011;58785;55.566;38.058;2023-03-03T05:36:24;5.75;;;0.50;;
71125;SDS011;58785;55.566;38.058;2023-03-03T05:38:49;3.40;;;0.70;;
71125;SDS011;58785;55.566;38.058;2023-03-03T05:41:15;5.65;;;0.82;;
71125;SDS011;58785;55.566;38.058;2023-03-03T05:43:41;7.73;;;0.80;;
71125;SDS011;58785;55.566;38.058;2023-03-03T05:49:48;5.95;;;0.80;;
71125;SDS011;58785;55.566;38.058;2023-03-03T05:52:13;3.70;;;0.50;;
71125;SDS011;58785;55.566;38.058;2023-03-03T05:54:39;7.40;;;0.82;;
71125;SDS011;58785;55.566;38.058;2023-03-03T05:57:05;4.97;;;0.87;;
71125;SDS011;58785;55.566;38.058;2023-03-03T05:59:31;6.53;;;0.60;;
71125;SDS011;58785;55.566;38.058;2023-03-03T06:01:56;6.03;;;1.20;;
71125;SDS011;58785;55.566;38.058;2023-03-03T06:04:22;4.50;;;0.90;;
71125;SDS011;58785;55.566;38.058;2023-03-03T06:06:48;6.35;;;0.93;;
71125;SDS011;58785;55.566;38.058;2023-03-03T06:09:14;7.33;;;1.30;;
71125;SDS011;58785;55.566;38.058;2023-03-03T06:11:40;5.10;;;0.82;;
71125;SDS011;58785;55.566;38.058;2023-03-03T06:14:06;4.53;;;0.68;;
71125;SDS011;58785;55.566;38.058;2023-03-03T06:16:32;3.70;;;0.82;;
71125;SDS011;58785;55.566;38.058;2023-03-03T06:18:57;5.00;;;0.70;;
71125;SDS011;58785;55.566;38.058;2023-03-03T06:21:23;5.10;;;0.80;;
71125;SDS011;58785;55.566;38.058;2023-03-03T06:23:49;9.33;;;1.20;;
71125;SDS011;58785;55.566;38.058;2023-03-03T06:26:14;5.70;;;0.80;;
71125;SDS011;58785;55.566;38.058;2023-03-03T06:28:40;7.03;;;1.33;;
71125;SDS011;58785;55.566;38.058;2023-03-03T06:31:05;7.00;;;1.13;;
71125;SDS011;58785;55.566;38.058;2023-03-03T06:33:31;6.07;;;1.08;;
71125;SDS011;58785;55.566;38.058;2023-03-03T06:35:57;5.77;;;1.10;;
71125;SDS011;58785;55.566;38.058;2023-03-03T06:38:23;6.80;;;1.07;;
71125;SDS011;58785;55.566;38.058;2023-03-03T06:40:48;7.03;;;1.10;;
71125;SDS011;58785;55.566;38.058;2023-03-03T06:43:14;4.30;;;1.00;;
71125;SDS011;58785;55.566;38.058;2023-03-03T06:45:40;10.37;;;1.63;;
71125;SDS011;58785;55.566;38.058;2023-03-03T06:48:08;6.38;;;1.17;;
71125;SDS011;58785;55.566;38.058;2023-03-03T06:50:34;4.47;;;1.00;;
71125;SDS011;58785;55.566;38.058;2023-03-03T06:55:39;4.05;;;1.15;;
71125;SDS011;58785;55.566;38.058;2023-03-03T06:58:15;8.38;;;1.52;;
71125;SDS011;58785;55.566;38.058;2023-03-03T07:00:53;6.78;;;1.73;;
71125;SDS011;58785;55.566;38.058;2023-03-03T07:03:25;6.78;;;1.67;;
71125;SDS011;58785;55.566;38.058;2023-03-03T07:06:00;6.00;;;1.37;;
71125;SDS011;58785;55.566;38.058;2023-03-03T07:08:28;8.80;;;1.13;;
71125;SDS011;58785;55.566;38.058;2023-03-03T07:10:55;5.75;;;1.30;;
71125;SDS011;58785;55.566;38.058;2023-03-03T07:13:27;5.75;;;1.15;;
71125;SDS011;58785;55.566;38.058;2023-03-03T07:15:55;7.38;;;1.38;;
71125;SDS011;58785;55.566;38.058;2023-03-03T07:18:35;7.77;;;1.20;;
71125;SDS011;58785;55.566;38.058;2023-03-03T07:23:44;4.78;;;1.05;;
71125;SDS011;58785;55.566;38.058;2023-03-03T07:26:12;8.10;;;0.95;;
71125;SDS011;58785;55.566;38.058;2023-03-03T07:28:40;6.57;;;1.30;;
71125;SDS011;58785;55.566;38.058;2023-03-03T07:31:27;6.30;;;1.20;;
71125;SDS011;58785;55.566;38.058;2023-03-03T07:34:13;5.22;;;1.55;;
71125;SDS011;58785;55.566;38.058;2023-03-03T07:36:55;4.53;;;1.10;;
71125;SDS011;58785;55.566;38.058;2023-03-03T07:39:25;6.68;;;0.95;;
71125;SDS011;58785;55.566;38.058;2023-03-03T07:44:39;6.67;;;1.23;;
71125;SDS011;58785;55.566;38.058;2023-03-03T07:47:11;8.45;;;1.70;;
71125;SDS011;58785;55.566;38.058;2023-03-03T07:49:43;7.10;;;1.40;;
71125;SDS011;58785;55.566;38.058;2023-03-03T07:55:53;11.13;;;2.20;;
71125;SDS011;58785;55.566;38.058;2023-03-03T07:58:14;5.87;;;1.23;;
71125;SDS011;58785;55.566;38.058;2023-03-03T08:03:49;9.30;;;1.80;;
71125;SDS011;58785;55.566;38.058;2023-03-03T08:11:33;7.50;;;1.77;;
71125;SDS011;58785;55.566;38.058;2023-03-03T08:13:59;7.68;;;1.60;;
71125;SDS011;58785;55.566;38.058;2023-03-03T08:16:36;6.47;;;1.38;;
71125;SDS011;58785;55.566;38.058;2023-03-03T08:19:02;7.85;;;1.70;;
71125;SDS011;58785;55.566;38.058;2023-03-03T08:21:29;6.70;;;1.50;;
71125;SDS011;58785;55.566;38.058;2023-03-03T08:23:58;5.60;;;1.10;;
71125;SDS011;58785;55.566;38.058;2023-03-03T08:26:24;6.45;;;1.23;;
71125;SDS011;58785;55.566;38.058;2023-03-03T08:28:51;6.15;;;1.15;;
71125;SDS011;58785;55.566;38.058;2023-03-03T08:31:17;4.57;;;1.00;;
71125;SDS011;58785;55.566;38.058;2023-03-03T08:33:43;3.63;;;1.02;;
71125;SDS011;58785;55.566;38.058;2023-03-03T08:36:10;4.13;;;0.90;;
71125;SDS011;58785;55.566;38.058;2023-03-03T08:38:35;5.82;;;1.08;;
71125;SDS011;58785;55.566;38.058;2023-03-03T08:41:01;5.00;;;0.90;;
71125;SDS011;58785;55.566;38.058;2023-03-03T08:43:28;8.90;;;1.20;;
71125;SDS011;58785;55.566;38.058;2023-03-03T08:45:55;7.50;;;1.10;;
71125;SDS011;58785;55.566;38.058;2023-03-03T08:48:23;5.53;;;1.20;;
71125;SDS011;58785;55.566;38.058;2023-03-03T08:50:50;5.87;;;1.20;;
71125;SDS011;58785;55.566;38.058;2023-03-03T08:53:16;6.10;;;1.52;;
71125;SDS011;58785;55.566;38.058;2023-03-03T08:55:43;4.88;;;1.42;;
71125;SDS011;58785;55.566;38.058;2023-03-03T09:01:49;5.00;;;1.20;;
71125;SDS011;58785;55.566;38.058;2023-03-03T09:04:15;6.03;;;0.93;;
71125;SDS011;58785;55.566;38.058;2023-03-03T09:06:41;4.70;;;1.30;;
71125;SDS011;58785;55.566;38.058;2023-03-03T09:09:06;6.22;;;1.30;;
71125;SDS011;58785;55.566;38.058;2023-03-03T09:11:32;7.03;;;1.47;;
71125;SDS011;58785;55.566;38.058;2023-03-03T09:14:00;6.43;;;1.48;;
71125;SDS011;58785;55.566;38.058;2023-03-03T09:16:32;8.65;;;1.58;;
71125;SDS011;58785;55.566;38.058;2023-03-03T09:19:06;6.93;;;1.73;;
71125;SDS011;58785;55.566;38.058;2023-03-03T09:21:44;8.23;;;2.47;;
71125;SDS011;58785;55.566;38.058;2023-03-03T09:24:31;9.15;;;1.60;;
71125;SDS011;58785;55.566;38.058;2023-03-03T09:26:59;4.82;;;1.10;;
71125;SDS011;58785;55.566;38.058;2023-03-03T09:31:54;4.75;;;1.02;;
71125;SDS011;58785;55.566;38.058;2023-03-03T09:34:24;9.32;;;2.28;;
71125;SDS011;58785;55.566;38.058;2023-03-03T09:37:19;8.47;;;1.77;;
71125;SDS011;58785;55.566;38.058;2023-03-03T09:39:51;5.60;;;1.60;;
71125;SDS011;58785;55.566;38.058;2023-03-03T09:50:56;4.77;;;1.43;;
71125;SDS011;58785;55.566;38.058;2023-03-03T09:56:23;4.65;;;1.45;;
71125;SDS011;58785;55.566;38.058;2023-03-03T10:13:11;6.72;;;0.93;;
71125;SDS011;58785;55.566;38.058;2023-03-03T10:18:52;6.83;;;1.47;;
71125;SDS011;58785;55.566;38.058;2023-03-03T10:21:28;8.77;;;1.20;;
71125;SDS011;58785;55.566;38.058;2023-03-03T10:24:17;5.82;;;1.33;;
71125;SDS011;58785;55.566;38.058;2023-03-03T10:32:45;7.60;;;1.40;;
71125;SDS011;58785;55.566;38.058;2023-03-03T10:35:39;5.07;;;1.40;;
71125;SDS011;58785;55.566;38.058;2023-03-03T10:41:04;7.63;;;1.40;;
71125;SDS011;58785;55.566;38.058;2023-03-03T10:55:05;4.60;;;0.70;;
71125;SDS011;58785;55.566;38.058;2023-03-03T11:00:26;3.53;;;0.87;;
71125;SDS011;58785;55.566;38.058;2023-03-03T11:05:34;4.72;;;0.80;;
71125;SDS011;58785;55.566;38.058;2023-03-03T11:08:19;4.25;;;0.70;;
71125;SDS011;58785;55.566;38.058;2023-03-03T11:10:53;3.72;;;0.63;;
71125;SDS011;58785;55.566;38.058;2023-03-03T11:24:28;4.68;;;0.90;;
71125;SDS011;58785;55.566;38.058;2023-03-03T11:30:16;3.78;;;0.88;;
71125;SDS011;58785;55.566;38.058;2023-03-03T11:35:31;5.25;;;1.00;;
71125;SDS011;58785;55.566;38.058;2023-03-03T11:40:31;5.13;;;0.80;;
71125;SDS011;58785;55.566;38.058;2023-03-03T11:43:07;4.63;;;0.77;;
71125;SDS011;58785;55.566;38.058;2023-03-03T11:45:47;4.63;;;0.87;;
71125;SDS011;58785;55.566;38.058;2023-03-03T11:48:32;4.82;;;0.65;;
71125;SDS011;58785;55.566;38.058;2023-03-03T11:51:07;4.57;;;0.50;;
71125;SDS011;58785;55.566;38.058;2023-03-03T11:56:43;5.55;;;0.40;;
71125;SDS011;58785;55.566;38.058;2023-03-03T12:05:08;4.18;;;0.70;;
71125;SDS011;58785;55.566;38.058;2023-03-03T12:10:07;8.27;;;1.30;;
71125;SDS011;58785;55.566;38.058;2023-03-03T12:12:50;10.55;;;3.35;;
71125;SDS011;58785;55.566;38.058;2023-03-03T12:26:04;10.50;;;1.15;;
71125;SDS011;58785;55.566;38.058;2023-03-03T12:34:24;3.42;;;0.82;;
71125;SDS011;58785;55.566;38.058;2023-03-03T12:37:17;3.25;;;0.63;;
71125;SDS011;58785;55.566;38.058;2023-03-03T12:40:08;4.78;;;1.08;;
71125;SDS011;58785;55.566;38.058;2023-03-03T12:48:16;5.03;;;1.13;;
71125;SDS011;58785;55.566;38.058;2023-03-03T12:50:52;3.63;;;0.93;;
71125;SDS011;58785;55.566;38.058;2023-03-03T12:56:13;5.15;;;0.82;;
71125;SDS011;58785;55.566;38.058;2023-03-03T13:06:58;5.82;;;0.90;;
71125;SDS011;58785;55.566;38.058;2023-03-03T13:15:07;6.03;;;1.45;;
71125;SDS011;58785;55.566;38.058;2023-03-03T13:31:10;4.80;;;1.00;;
71125;SDS011;58785;55.566;38.058;2023-03-03T13:33:43;5.50;;;1.55;;
71125;SDS011;58785;55.566;38.058;2023-03-03T13:36:18;8.57;;;1.80;;
71125;SDS011;58785;55.566;38.058;2023-03-03T13:38:47;8.40;;;2.05;;
71125;SDS011;58785;55.566;38.058;2023-03-03T13:44:39;10.85;;;2.58;;
71125;SDS011;58785;55.566;38.058;2023-03-03T13:52:10;8.95;;;2.05;;
71125;SDS011;58785;55.566;38.058;2023-03-03T13:54:55;6.50;;;2.10;;
71125;SDS011;58785;55.566;38.058;2023-03-03T14:11:36;5.05;;;1.33;;
71125;SDS011;58785;55.566;38.058;2023-03-03T14:14:24;8.03;;;1.40;;
71125;SDS011;58785;55.566;38.058;2023-03-03T14:20:29;6.68;;;1.90;;
71125;SDS011;58785;55.566;38.058;2023-03-03T14:25:51;7.35;;;1.80;;
71125;SDS011;58785;55.566;38.058;2023-03-03T14:28:25;11.70;;;1.70;;
71125;SDS011;58785;55.566;38.058;2023-03-03T14:30:56;7.70;;;1.95;;
71125;SDS011;58785;55.566;38.058;2023-03-03T14:33:27;10.32;;;2.17;;
71125;SDS011;58785;55.566;38.058;2023-03-03T14:38:22;12.67;;;2.50;;
71125;SDS011;58785;55.566;38.058;2023-03-03T14:41:02;12.57;;;2.58;;
71125;SDS011;58785;55.566;38.058;2023-03-03T14:48:52;8.27;;;2.37;;
71125;SDS011;58785;55.566;38.058;2023-03-03T14:51:24;7.43;;;2.00;;
71125;SDS011;58785;55.566;38.058;2023-03-03T14:54:15;9.23;;;2.47;;
71125;SDS011;58785;55.566;38.058;2023-03-03T14:57:00;5.43;;;1.73;;
71125;SDS011;58785;55.566;38.058;2023-03-03T14:59:36;4.72;;;1.45;;
71125;SDS011;58785;55.566;38.058;2023-03-03T15:02:09;9.90;;;1.50;;
71125;SDS011;58785;55.566;38.058;2023-03-03T15:05:19;9.23;;;1.30;;
71125;SDS011;58785;55.566;38.058;2023-03-03T15:07:48;9.02;;;1.17;;
71125;SDS011;58785;55.566;38.058;2023-03-03T15:10:27;6.10;;;1.77;;
71125;SDS011;58785;55.566;38.058;2023-03-03T15:12:55;7.63;;;1.83;;
71125;SDS011;58785;55.566;38.058;2023-03-03T15:15:22;8.10;;;1.70;;
71125;SDS011;58785;55.566;38.058;2023-03-03T15:23:13;6.27;;;1.40;;
71125;SDS011;58785;55.566;38.058;2023-03-03T15:26:11;6.93;;;1.45;;
71125;SDS011;58785;55.566;38.058;2023-03-03T15:31:15;10.17;;;1.30;;
71125;SDS011;58785;55.566;38.058;2023-03-03T15:34:08;9.38;;;1.55;;
71125;SDS011;58785;55.566;38.058;2023-03-03T15:36:51;8.23;;;1.77;;
71125;SDS011;58785;55.566;38.058;2023-03-03T15:42:23;7.55;;;1.85;;
71125;SDS011;58785;55.566;38.058;2023-03-03T15:45:05;6.27;;;1.60;;
71125;SDS011;58785;55.566;38.058;2023-03-03T15:54:33;6.38;;;1.60;;
71125;SDS011;58785;55.566;38.058;2023-03-03T15:57:20;6.13;;;1.38;;
71125;SDS011;58785;55.566;38.058;2023-03-03T16:03:04;10.48;;;1.63;;
71125;SDS011;58785;55.566;38.058;2023-03-03T16:05:52;6.30;;;1.45;;
71125;SDS011;58785;55.566;38.058;2023-03-03T16:11:06;6.32;;;1.25;;
71125;SDS011;58785;55.566;38.058;2023-03-03T16:22:03;4.22;;;1.00;;
71125;SDS011;58785;55.566;38.058;2023-03-03T16:25:01;6.53;;;1.10;;
71125;SDS011;58785;55.566;38.058;2023-03-03T16:27:45;8.33;;;1.37;;
71125;SDS011;58785;55.566;38.058;2023-03-03T16:32:55;10.07;;;1.55;;
71125;SDS011;58785;55.566;38.058;2023-03-03T16:35:32;6.65;;;1.50;;
71125;SDS011;58785;55.566;38.058;2023-03-03T16:41:04;7.93;;;1.83;;
71125;SDS011;58785;55.566;38.058;2023-03-03T16:46:27;10.55;;;1.55;;
71125;SDS011;58785;55.566;38.058;2023-03-03T16:49:07;8.88;;;1.98;;
71125;SDS011;58785;55.566;38.058;2023-03-03T16:51:48;5.72;;;1.42;;
71125;SDS011;58785;55.566;38.058;2023-03-03T16:57:10;13.98;;;2.88;;
71125;SDS011;58785;55.566;38.058;2023-03-03T17:00:08;7.50;;;1.60;;
71125;SDS011;58785;55.566;38.058;2023-03-03T17:13:43;11.20;;;2.70;;
71125;SDS011;58785;55.566;38.058;2023-03-03T17:16:16;10.47;;;2.97;;
71125;SDS011;58785;55.566;38.058;2023-03-03T17:18:58;8.70;;;2.85;;
71125;SDS011;58785;55.566;38.058;2023-03-03T17:37:42;9.57;;;2.38;;
71125;SDS011;58785;55.566;38.058;2023-03-03T17:55:21;7.30;;;1.77;;
71125;SDS011;58785;55.566;38.058;2023-03-03T18:03:28;12.00;;;2.33;;
71125;SDS011;58785;55.566;38.058;2023-03-03T18:08:46;9.27;;;2.90;;
71125;SDS011;58785;55.566;38.058;2023-03-03T18:11:53;10.60;;;2.90;;
71125;SDS011;58785;55.566;38.058;2023-03-03T18:22:55;9.15;;;1.98;;
71125;SDS011;58785;55.566;38.058;2023-03-03T18:34:33;8.32;;;2.42;;
71125;SDS011;58785;55.566;38.058;2023-03-03T18:37:07;9.02;;;2.10;;
71125;SDS011;58785;55.566;38.058;2023-03-03T18:44:40;8.20;;;2.33;;
71125;SDS011;58785;55.566;38.058;2023-03-03T18:47:07;9.80;;;2.50;;
71125;SDS011;58785;55.566;38.058;2023-03-03T18:49:49;6.68;;;2.20;;
71125;SDS011;58785;55.566;38.058;2023-03-03T18:52:34;8.03;;;2.23;;
71125;SDS011;58785;55.566;38.058;2023-03-03T18:57:33;6.88;;;1.42;;
71125;SDS011;58785;55.566;38.058;2023-03-03T19:00:11;7.60;;;1.95;;
71125;SDS011;58785;55.566;38.058;2023-03-03T19:02:40;6.13;;;1.42;;
71125;SDS011;58785;55.566;38.058;2023-03-03T19:07:51;6.53;;;1.58;;
71125;SDS011;58785;55.566;38.058;2023-03-03T19:10:43;7.25;;;1.52;;
71125;SDS011;58785;55.566;38.058;2023-03-03T19:16:01;6.75;;;1.13;;
71125;SDS011;58785;55.566;38.058;2023-03-03T19:22:25;10.05;;;2.03;;
71125;SDS011;58785;55.566;38.058;2023-03-03T19:25:27;5.15;;;1.08;;
71125;SDS011;58785;55.566;38.058;2023-03-03T19:31:00;4.53;;;1.20;;
71125;SDS011;58785;55.566;38.058;2023-03-03T19:36:17;5.57;;;1.05;;
71125;SDS011;58785;55.566;38.058;2023-03-03T19:44:49;8.35;;;1.50;;
71125;SDS011;58785;55.566;38.058;2023-03-03T19:50:05;7.15;;;1.40;;
71125;SDS011;58785;55.566;38.058;2023-03-03T19:52:51;4.60;;;1.10;;
71125;SDS011;58785;55.566;38.058;2023-03-03T20:01:00;5.17;;;1.20;;
71125;SDS011;58785;55.566;38.058;2023-03-03T20:03:40;5.05;;;1.27;;
71125;SDS011;58785;55.566;38.058;2023-03-03T20:08:40;6.93;;;1.50;;
71125;SDS011;58785;55.566;38.058;2023-03-03T20:16:54;7.50;;;1.80;;
71125;SDS011;58785;55.566;38.058;2023-03-03T20:36:34;4.45;;;1.50;;
71125;SDS011;58785;55.566;38.058;2023-03-03T20:39:10;7.35;;;2.10;;
71125;SDS011;58785;55.566;38.058;2023-03-03T20:41:48;5.77;;;1.80;;
71125;SDS011;58785;55.566;38.058;2023-03-03T20:44:42;5.53;;;1.20;;
71125;SDS011;58785;55.566;38.058;2023-03-03T20:50:05;7.37;;;2.00;;
71125;SDS011;58785;55.566;38.058;2023-03-03T20:55:45;6.78;;;1.83;;
71125;SDS011;58785;55.566;38.058;2023-03-03T20:58:18;8.07;;;1.65;;
71125;SDS011;58785;55.566;38.058;2023-03-03T21:01:07;7.83;;;1.70;;
71125;SDS011;58785;55.566;38.058;2023-03-03T21:03:40;7.75;;;1.70;;
71125;SDS011;58785;55.566;38.058;2023-03-03T21:06:09;5.55;;;1.55;;
71125;SDS011;58785;55.566;38.058;2023-03-03T21:08:52;6.63;;;1.50;;
71125;SDS011;58785;55.566;38.058;2023-03-03T21:11:23;6.18;;;1.48;;
71125;SDS011;58785;55.566;38.058;2023-03-03T21:13:50;6.07;;;1.53;;
71125;SDS011;58785;55.566;38.058;2023-03-03T21:21:28;7.80;;;1.58;;
71125;SDS011;58785;55.566;38.058;2023-03-03T21:23:59;7.60;;;1.65;;
71125;SDS011;58785;55.566;38.058;2023-03-03T21:26:59;7.47;;;1.40;;
71125;SDS011;58785;55.566;38.058;2023-03-03T21:29:32;5.70;;;1.00;;
71125;SDS011;58785;55.566;38.058;2023-03-03T21:34:30;6.97;;;1.30;;
71125;SDS011;58785;55.566;38.058;2023-03-03T21:37:02;5.87;;;1.33;;
71125;SDS011;58785;55.566;38.058;2023-03-03T21:39:42;8.30;;;1.33;;
71125;SDS011;58785;55.566;38.058;2023-03-03T21:47:12;7.78;;;1.42;;
71125;SDS011;58785;55.566;38.058;2023-03-03T21:49:41;7.07;;;1.53;;
71125;SDS011;58785;55.566;38.058;2023-03-03T21:52:09;10.25;;;1.17;;
71125;SDS011;58785;55.566;38.058;2023-03-03T21:54:36;6.03;;;1.20;;
71125;SDS011;58785;55.566;38.058;2023-03-03T21:57:01;6.17;;;1.63;;
71125;SDS011;58785;55.566;38.058;2023-03-03T21:59:27;6.15;;;1.30;;
71125;SDS011;58785;55.566;38.058;2023-03-03T22:01:53;5.03;;;1.17;;
71125;SDS011;58785;55.566;38.058;2023-03-03T22:04:19;9.83;;;1.37;;